createdAt,value
2023-01-19T00:02:35.599Z,98553.17
2023-01-19T00:07:38.224Z,98578.61
2023-01-19T00:12:40.938Z,98587.98
2023-01-19T00:17:43.559Z,98602.10
2023-01-19T00:22:50.714Z,98618.61
2023-01-19T00:27:53.345Z,98631.08
2023-01-19T00:32:56.261Z,98641.48
2023-01-19T00:37:59.515Z,98655.58
2023-01-19T00:43:03.236Z,98666.49
2023-01-19T00:48:06.432Z,98675.98
2023-01-19T00:53:09.147Z,98690.23
2023-01-19T00:58:11.769Z,98692.15
2023-01-19T01:03:14.757Z,98694.74
2023-01-19T01:08:17.405Z,98706.50
2023-01-19T01:13:23.591Z,98703.80
2023-01-19T01:18:28.225Z,98706.29
2023-01-19T01:23:30.897Z,98719.49
2023-01-19T01:28:33.516Z,98731.35
2023-01-19T01:33:39.820Z,98741.36
2023-01-19T01:38:44.036Z,98752.29
2023-01-19T01:43:54.780Z,98760.42
2023-01-19T01:49:00.353Z,98767.13
2023-01-19T01:54:06.999Z,98775.67
2023-01-19T01:59:26.140Z,98778.02
2023-01-19T02:04:30.060Z,98795.60
2023-01-19T02:09:39.621Z,98806.84
2023-01-19T02:14:42.265Z,98803.79
2023-01-19T02:19:46.431Z,98801.90
2023-01-19T02:24:50.068Z,98804.93
2023-01-19T02:29:53.207Z,98817.92
2023-01-19T02:34:58.599Z,98826.87
2023-01-19T02:40:04.163Z,98827.79
2023-01-19T02:45:09.416Z,98830.17
2023-01-19T02:50:17.838Z,98813.64
2023-01-19T02:55:28.349Z,98805.71
2023-01-19T03:00:56.059Z,98820.41
2023-01-19T03:06:05.959Z,98814.58
2023-01-19T03:11:12.685Z,98816.31
2023-01-19T03:16:21.852Z,98821.75
2023-01-19T03:21:28.681Z,98819.92
2023-01-19T03:26:37.432Z,98813.67
2023-01-19T03:31:45.775Z,98802.17
2023-01-19T03:36:53.969Z,98813.64
2023-01-19T03:42:04.928Z,98799.55
2023-01-19T03:47:10.152Z,98804.14
2023-01-19T03:52:12.924Z,98803.80
2023-01-19T03:57:15.600Z,98797.38
2023-01-19T04:02:18.247Z,98786.23
2023-01-19T04:07:20.964Z,98784.82
2023-01-19T04:12:23.729Z,98791.86
2023-01-19T04:17:26.459Z,98801.53
2023-01-19T04:22:30.374Z,98808.13
2023-01-19T04:27:32.996Z,98810.26
2023-01-19T04:32:37.721Z,98814.92
2023-01-19T04:37:40.398Z,98830.60
2023-01-19T04:42:44.938Z,98840.42
2023-01-19T04:47:47.541Z,98837.52
2023-01-19T04:52:50.219Z,98845.66
2023-01-19T04:57:54.181Z,98857.45
2023-01-19T05:02:56.880Z,98868.10
2023-01-19T05:07:59.518Z,98859.64
2023-01-19T05:13:02.627Z,98861.82
2023-01-19T05:18:05.511Z,98863.49
2023-01-19T05:23:08.144Z,98864.36
2023-01-19T05:28:11.674Z,98872.43
2023-01-19T05:33:16.835Z,98879.61
2023-01-19T05:38:29.348Z,98885.15
2023-01-19T05:43:36.636Z,98894.73
2023-01-19T05:48:42.791Z,98904.00
2023-01-19T05:53:45.434Z,98920.30
2023-01-19T05:58:48.331Z,98925.45
2023-01-19T06:03:51.003Z,98934.48
2023-01-19T06:08:54.444Z,98951.03
2023-01-19T06:13:57.101Z,98958.21
2023-01-19T06:18:59.745Z,98965.23
2023-01-19T06:24:03.553Z,98976.91
2023-01-19T06:29:06.380Z,98986.55
2023-01-19T06:34:10.041Z,98994.05
2023-01-19T06:39:13.215Z,98998.98
2023-01-19T06:44:15.895Z,99005.39
2023-01-19T06:49:18.558Z,99007.52
2023-01-19T06:54:21.880Z,99009.77
2023-01-19T06:59:25.486Z,99015.02
2023-01-19T07:04:28.092Z,99016.56
2023-01-19T07:09:30.675Z,99031.73
2023-01-19T07:14:33.975Z,99043.10
2023-01-19T07:19:36.755Z,99053.09
2023-01-19T07:24:39.362Z,99062.66
2023-01-19T07:29:42.516Z,99090.09
2023-01-19T07:34:45.399Z,99101.85
2023-01-19T07:39:48.153Z,99102.24
2023-01-19T07:44:50.727Z,99104.97
2023-01-19T07:49:53.327Z,99108.56
2023-01-19T07:54:55.920Z,99111.27
2023-01-19T07:59:58.528Z,99101.05
2023-01-19T08:05:01.224Z,99106.77
2023-01-19T08:10:04.044Z,99111.92
2023-01-19T08:15:07.345Z,99105.58
2023-01-19T08:20:11.193Z,99111.42
2023-01-19T08:25:13.813Z,99111.07
2023-01-19T08:30:16.910Z,99107.36
2023-01-19T08:35:19.493Z,99103.80
2023-01-19T08:40:22.239Z,99110.58
2023-01-19T08:45:24.906Z,99119.45
2023-01-19T08:50:30.937Z,99133.84
2023-01-19T08:55:36.220Z,99136.21
2023-01-19T09:00:40.098Z,99140.66
2023-01-19T09:05:42.837Z,99145.67
2023-01-19T09:10:50.699Z,99146.16
2023-01-19T09:15:53.482Z,99154.37
2023-01-19T09:20:57.653Z,99155.61
2023-01-19T09:26:03.024Z,99148.39
2023-01-19T09:31:07.592Z,99142.64
2023-01-19T09:36:10.686Z,99151.42
2023-01-19T09:41:20.982Z,99153.14
2023-01-19T09:46:38.876Z,99156.61
2023-01-19T09:51:46.673Z,99154.73
2023-01-19T09:56:52.448Z,99152.23
2023-01-19T10:01:58.380Z,99149.83
2023-01-19T10:07:09.640Z,99150.41
2023-01-19T10:12:35.217Z,99153.63
2023-01-19T10:17:47.090Z,99156.66
2023-01-19T10:22:50.636Z,99168.48
2023-01-19T10:27:53.391Z,99168.58
2023-01-19T10:32:56.096Z,99170.96
2023-01-19T10:38:02.106Z,99164.87
2023-01-19T10:43:10.850Z,99162.59
2023-01-19T10:48:13.842Z,99164.89
2023-01-19T10:53:22.223Z,99165.16
2023-01-19T10:58:29.950Z,99160.99
2023-01-19T11:03:32.599Z,99154.98
2023-01-19T11:08:35.203Z,99141.48
2023-01-19T11:13:43.859Z,99141.27
2023-01-19T11:18:52.610Z,99139.41
2023-01-19T11:23:57.855Z,99141.37
2023-01-19T11:29:03.235Z,99141.73
2023-01-19T11:34:21.764Z,99139.63
2023-01-19T11:39:28.115Z,99145.88
2023-01-19T11:44:36.289Z,99141.70
2023-01-19T11:49:42.832Z,99137.55
2023-01-19T11:55:01.496Z,99132.98
2023-01-19T12:00:24.960Z,99136.41
2023-01-19T12:05:36.056Z,99133.81
2023-01-19T12:10:43.900Z,99134.60
2023-01-19T12:15:48.414Z,99131.97
2023-01-19T12:20:54.051Z,99128.86
2023-01-19T12:26:02.493Z,99129.89
2023-01-19T12:31:05.724Z,99125.49
2023-01-19T12:36:14.182Z,99129.42
2023-01-19T12:41:18.750Z,99130.49
2023-01-19T12:46:24.239Z,99124.02
2023-01-19T12:51:27.086Z,99121.23
2023-01-19T12:56:33.971Z,99126.84
2023-01-19T13:01:36.756Z,99129.04
2023-01-19T13:06:45.227Z,99121.48
2023-01-19T13:12:21.587Z,99124.66
2023-01-19T13:17:31.912Z,99121.75
2023-01-19T13:22:40.321Z,99118.80
2023-01-19T13:27:43.129Z,99127.89
2023-01-19T13:32:46.861Z,99121.40
2023-01-19T13:37:50.688Z,99124.39
2023-01-19T13:42:54.031Z,99122.62
2023-01-19T13:47:59.848Z,99120.02
2023-01-19T13:53:04.508Z,99127.36
2023-01-19T13:58:23.240Z,99125.81
2023-01-19T14:03:26.661Z,99128.22
2023-01-19T14:08:31.169Z,99131.39
2023-01-19T14:13:40.047Z,99140.05
2023-01-19T14:18:45.179Z,99143.11
2023-01-19T14:23:49.278Z,99143.11
2023-01-19T14:28:51.939Z,99145.62
2023-01-19T14:33:56.068Z,99149.32
2023-01-19T14:39:00.986Z,99161.04
2023-01-19T14:44:09.008Z,99160.64
2023-01-19T14:49:21.672Z,99166.02
2023-01-19T14:54:31.609Z,99168.70
2023-01-19T14:59:34.296Z,99174.21
2023-01-19T15:04:36.902Z,99171.80
2023-01-19T15:09:39.823Z,99175.94
2023-01-19T15:14:42.791Z,99183.16
2023-01-19T15:19:45.414Z,99180.06
2023-01-19T15:24:49.557Z,99178.52
2023-01-19T15:29:52.232Z,99175.63
2023-01-19T15:34:54.875Z,99179.75
2023-01-19T15:39:57.705Z,99177.48
2023-01-19T15:45:00.430Z,99179.86
2023-01-19T15:50:03.058Z,99186.54
2023-01-19T15:55:06.292Z,99198.41
2023-01-19T16:00:09.820Z,99207.56
2023-01-19T16:05:13.137Z,99209.71
2023-01-19T16:10:16.932Z,99212.12
2023-01-19T16:15:19.547Z,99214.80
2023-01-19T16:20:22.184Z,99217.35
2023-01-19T16:25:24.853Z,99219.44
2023-01-19T16:30:27.493Z,99224.77
2023-01-19T16:35:30.098Z,99228.89
2023-01-19T16:40:32.726Z,99225.48
2023-01-19T16:45:37.796Z,99223.60
2023-01-19T16:50:40.414Z,99227.71
2023-01-19T16:55:43.037Z,99224.64
2023-01-19T17:00:45.790Z,99223.61
2023-01-19T17:05:51.605Z,99229.77
2023-01-19T17:11:27.006Z,99227.17
2023-01-19T17:17:05.715Z,99222.88
2023-01-19T17:22:12.858Z,99226.45
2023-01-19T17:27:17.100Z,99232.21
2023-01-19T17:32:19.691Z,99228.70
2023-01-19T17:37:22.342Z,99226.09
2023-01-19T17:42:24.990Z,99228.48
2023-01-19T17:47:27.642Z,99229.66
2023-01-19T17:52:30.281Z,99228.48
2023-01-19T17:57:33.130Z,99225.71
2023-01-19T18:02:36.025Z,99226.45
2023-01-19T18:07:39.975Z,99224.09
2023-01-19T18:12:42.641Z,99219.39
2023-01-19T18:17:45.296Z,99216.36
2023-01-19T18:22:47.989Z,99211.73
2023-01-19T18:27:50.563Z,99213.58
2023-01-19T18:32:53.170Z,99212.63
2023-01-19T18:37:57.016Z,99209.76
2023-01-19T18:42:59.609Z,99207.67
2023-01-19T18:48:02.575Z,99207.20
2023-01-19T18:53:05.242Z,99213.20
2023-01-19T18:58:08.679Z,99218.16
2023-01-19T19:03:11.341Z,99215.02
2023-01-19T19:08:13.985Z,99209.05
2023-01-19T19:13:17.608Z,99212.28
2023-01-19T19:18:22.574Z,99217.16
2023-01-19T19:23:25.315Z,99219.54
2023-01-19T19:28:27.908Z,99224.25
2023-01-19T19:33:30.699Z,99222.13
2023-01-19T19:38:36.553Z,99221.64
2023-01-19T19:43:41.897Z,99215.88
2023-01-19T19:48:47.602Z,99223.31
2023-01-19T19:53:51.852Z,99230.53
2023-01-19T19:58:56.560Z,99232.27
2023-01-19T20:04:06.626Z,99237.73
2023-01-19T20:09:12.549Z,99237.40
2023-01-19T20:14:16.146Z,99234.91
2023-01-19T20:19:18.885Z,99238.45
2023-01-19T20:24:21.575Z,99229.99
2023-01-19T20:29:24.304Z,99231.26
2023-01-19T20:34:32.958Z,99233.34
2023-01-19T20:39:37.086Z,99235.52
2023-01-19T20:44:39.970Z,99236.01
2023-01-19T20:49:42.704Z,99238.29
2023-01-19T20:54:45.395Z,99241.04
2023-01-19T20:59:48.033Z,99245.48
2023-01-19T21:04:53.116Z,99240.39
2023-01-19T21:09:55.791Z,99251.95
2023-01-19T21:15:00.911Z,99260.41
2023-01-19T21:20:04.003Z,99261.55
2023-01-19T21:25:07.561Z,99264.02
2023-01-19T21:30:10.873Z,99267.13
2023-01-19T21:35:13.993Z,99270.73
2023-01-19T21:40:19.202Z,99275.59
2023-01-19T21:45:22.266Z,99283.20
2023-01-19T21:50:24.996Z,99291.27
2023-01-19T21:55:28.080Z,99296.17
2023-01-19T22:00:30.815Z,99298.41
2023-01-19T22:05:36.740Z,99301.67
2023-01-19T22:10:39.586Z,99298.32
2023-01-19T22:15:42.191Z,99297.36
2023-01-19T22:20:44.804Z,99304.99
2023-01-19T22:25:47.548Z,99316.10
2023-01-19T22:30:50.231Z,99314.38
2023-01-19T22:35:52.850Z,99313.94
2023-01-19T22:40:55.435Z,99314.56
2023-01-19T22:45:58.957Z,99314.48
2023-01-19T22:51:04.065Z,99314.35
2023-01-19T22:56:13.028Z,99313.73
2023-01-19T23:01:37.734Z,99320.30
2023-01-19T23:06:40.490Z,99325.37
2023-01-19T23:11:48.328Z,99332.36
2023-01-19T23:16:51.283Z,99348.59
2023-01-19T23:21:53.929Z,99353.56
2023-01-19T23:26:56.542Z,99354.92
2023-01-19T23:31:59.331Z,99363.68
2023-01-19T23:37:01.955Z,99362.27
2023-01-19T23:42:05.125Z,99358.43
2023-01-19T23:47:07.705Z,99372.72
2023-01-19T23:52:10.342Z,99377.78
2023-01-19T23:57:12.959Z,99386.27
